Time;durP1;ratioP1;P1;durP2;ratioP2;P2;SDS_P1;SDS_P2;PMS_P1;PMS_P2;Temp;Humidity;BMP_temperature;BMP_pressure;BME280_temperature;BME280_humidity;BME280_pressure;Samples;Min_cycle;Max_cycle;Signal;HPM_P1;HPM_P2
2023/05/02 00:06:30;;;;;;;12.17;7.70;;;12.20;86.00;;;;;;21321825;27;20264;-72
2023/05/02 00:16:32;;;;;;;10.27;7.43;;;12.00;86.80;;;;;;21321158;27;20672;-72
2023/05/02 00:26:33;;;;;;;12.60;7.63;;;12.00;88.10;;;;;;21320710;27;20208;-72
2023/05/02 00:36:35;;;;;;;11.10;7.37;;;11.80;88.40;;;;;;21319690;27;20267;-71
2023/05/02 00:46:37;;;;;;;11.03;8.40;;;11.80;89.00;;;;;;21318403;27;20267;-71
2023/05/02 00:56:39;;;;;;;10.93;7.77;;;11.80;89.90;;;;;;21318536;27;20215;-72
2023/05/02 01:06:41;;;;;;;10.43;7.27;;;11.60;90.50;;;;;;21266519;27;20260;-72
2023/05/02 01:16:45;;;;;;;9.53;7.00;;;11.60;90.80;;;;;;21259201;27;20686;-72
2023/05/02 01:27:01;;;;;;;11.03;7.30;;;11.60;91.00;;;;;;21258836;27;20262;-72
2023/05/02 01:37:05;;;;;;;9.80;7.83;;;11.60;91.10;;;;;;21239657;27;20259;-72
2023/05/02 01:47:09;;;;;;;10.73;7.23;;;11.60;91.60;;;;;;21256600;27;20231;-72
2023/05/02 01:57:12;;;;;;;10.97;7.93;;;11.60;91.90;;;;;;21256556;27;20669;-72
2023/05/02 02:07:13;;;;;;;10.03;6.93;;;11.70;92.10;;;;;;21254929;27;20237;-72
2023/05/02 02:17:39;;;;;;;11.53;6.60;;;11.70;92.10;;;;;;21253389;27;20233;-71
2023/05/02 02:27:41;;;;;;;10.97;7.43;;;11.60;92.40;;;;;;21235551;27;20262;-71
2023/05/02 02:37:53;;;;;;;9.50;7.33;;;11.70;92.60;;;;;;21252896;27;20211;-71
2023/05/02 02:48:17;;;;;;;10.83;7.27;;;11.80;92.50;;;;;;21252610;27;20243;-71
2023/05/02 02:58:51;;;;;;;7.90;7.10;;;11.90;92.60;;;;;;21233912;27;20224;-72
2023/05/02 03:08:52;;;;;;;10.70;7.20;;;12.10;92.70;;;;;;21236789;27;20250;-72
2023/05/02 03:18:54;;;;;;;11.73;6.37;;;12.10;92.70;;;;;;21249391;27;20206;-72
2023/05/02 03:28:56;;;;;;;6.50;5.80;;;12.20;92.70;;;;;;21248971;27;20240;-72
2023/05/02 03:38:57;;;;;;;12.00;6.57;;;12.20;92.90;;;;;;21248416;27;20200;-72
2023/05/02 03:48:59;;;;;;;8.13;6.47;;;12.20;92.70;;;;;;21247761;27;20238;-71
2023/05/02 03:59:01;;;;;;;10.50;6.73;;;12.20;92.90;;;;;;21230131;28;20212;-71
2023/05/02 04:09:02;;;;;;;8.63;6.27;;;12.30;93.20;;;;;;21247333;28;20235;-71
2023/05/02 04:19:05;;;;;;;12.17;6.70;;;12.30;93.20;;;;;;21246855;28;20278;-71
2023/05/02 04:29:06;;;;;;;9.50;6.50;;;12.50;93.30;;;;;;21228498;28;20234;-72
2023/05/02 04:39:08;;;;;;;8.87;6.33;;;12.50;93.10;;;;;;21255283;27;20206;-72
2023/05/02 04:49:11;;;;;;;9.83;7.03;;;12.70;93.10;;;;;;21261102;27;20244;-72
2023/05/02 04:59:12;;;;;;;9.53;7.13;;;12.70;93.10;;;;;;21261025;27;20589;-72
2023/05/02 05:09:14;;;;;;;8.80;6.70;;;12.70;93.30;;;;;;21259932;27;20789;-71
2023/05/02 05:19:16;;;;;;;13.43;7.03;;;12.80;93.10;;;;;;21258930;27;20198;-69
2023/05/02 05:29:18;;;;;;;11.27;6.97;;;12.80;93.40;;;;;;21257615;27;20236;-76
2023/05/02 05:39:19;;;;;;;13.03;7.43;;;12.80;93.60;;;;;;21257229;27;20258;-70
2023/05/02 05:49:23;;;;;;;14.50;8.63;;;13.00;93.70;;;;;;21254261;27;20638;-70
2023/05/02 05:59:24;;;;;;;10.97;7.90;;;13.00;93.60;;;;;;21255995;27;20207;-69
2023/05/02 06:09:26;;;;;;;10.70;7.90;;;13.00;93.90;;;;;;21255118;27;20280;-69
2023/05/02 06:19:28;;;;;;;15.40;8.80;;;13.00;94.20;;;;;;21254598;27;20656;-70
2023/05/02 06:29:29;;;;;;;18.90;9.60;;;13.00;94.60;;;;;;21253535;27;20284;-71
2023/05/02 06:39:32;;;;;;;16.77;9.73;;;13.10;94.90;;;;;;21252843;27;20202;-70
2023/05/02 06:49:34;;;;;;;13.83;9.10;;;13.40;94.80;;;;;;21251824;27;20269;-70
2023/05/02 06:59:36;;;;;;;13.53;9.60;;;13.60;94.90;;;;;;21250517;27;20205;-71
2023/05/02 07:09:38;;;;;;;15.27;9.90;;;13.90;94.70;;;;;;21250232;27;20239;-71
2023/05/02 07:19:42;;;;;;;17.07;9.83;;;14.10;94.50;;;;;;21249156;27;20667;-71
2023/05/02 07:29:46;;;;;;;21.97;16.50;;;14.10;94.00;;;;;;21249224;27;20719;-71
2023/05/02 07:39:49;;;;;;;15.00;10.83;;;14.00;93.90;;;;;;21248498;27;20266;-72
2023/05/02 07:49:51;;;;;;;15.57;11.13;;;14.10;94.10;;;;;;21247467;27;20240;-72
2023/05/02 07:59:55;;;;;;;16.73;11.17;;;14.10;93.70;;;;;;21247406;28;20212;-71
2023/05/02 08:09:57;;;;;;;17.33;11.40;;;14.30;93.60;;;;;;21249983;27;20237;-72
2023/05/02 08:20:00;;;;;;;16.90;10.27;;;14.80;93.00;;;;;;21263887;27;20682;-71
2023/05/02 08:30:05;;;;;;;13.47;9.80;;;15.30;92.50;;;;;;21262866;27;20233;-72
2023/05/02 08:40:11;;;;;;;13.87;10.03;;;15.80;90.90;;;;;;21262329;27;20209;-71
2023/05/02 08:50:15;;;;;;;11.97;8.40;;;;;;;;;;21260949;27;20723;-71
2023/05/02 09:00:17;;;;;;;15.13;9.20;;;15.90;90.90;;;;;;21260428;27;20210;-71
2023/05/02 09:10:20;;;;;;;11.60;8.37;;;17.00;87.20;;;;;;21260274;27;20253;-71
2023/05/02 09:20:22;;;;;;;16.53;8.00;;;17.10;84.80;;;;;;21258385;27;20202;-71
2023/05/02 09:30:25;;;;;;;10.17;8.03;;;17.10;82.20;;;;;;21258045;27;20230;-71
2023/05/02 09:40:29;;;;;;;9.63;7.37;;;17.30;80.20;;;;;;21257398;27;20556;-71
2023/05/02 09:50:37;;;;;;;11.80;6.77;;;17.60;78.40;;;;;;21255724;27;20236;-71
2023/05/02 10:00:41;;;;;;;10.17;7.57;;;17.90;74.40;;;;;;21256456;27;20204;-71
2023/05/02 10:10:55;;;;;;;12.33;8.00;;;17.70;72.90;;;;;;21254672;27;20241;-71
2023/05/02 10:21:00;;;;;;;17.63;14.23;;;17.70;72.70;;;;;;21253809;27;20211;-71
2023/05/02 10:31:03;;;;;;;13.20;8.73;;;17.30;71.60;;;;;;21252568;27;20274;-70
2023/05/02 10:41:13;;;;;;;8.30;6.80;;;17.60;71.60;;;;;;21254118;27;20243;-71
2023/05/02 10:51:30;;;;;;;7.37;6.67;;;17.70;68.80;;;;;;21252128;27;20726;-71
2023/05/02 11:01:36;;;;;;;7.97;6.30;;;17.70;69.40;;;;;;21250754;27;20208;-70
2023/05/02 11:11:41;;;;;;;7.43;6.03;;;17.90;69.80;;;;;;21249727;27;20267;-71
2023/05/02 11:21:44;;;;;;;7.00;5.23;;;17.70;66.80;;;;;;21248810;27;20208;-70
2023/05/02 11:31:53;;;;;;;7.10;5.43;;;17.80;66.60;;;;;;21248400;27;20232;-71
2023/05/02 11:41:55;;;;;;;13.77;9.97;;;18.60;65.40;;;;;;21247867;27;20212;-72
2023/05/02 11:51:58;;;;;;;7.37;6.03;;;18.60;65.00;;;;;;21246508;27;20642;-72
2023/05/02 12:01:59;;;;;;;7.97;6.17;;;18.50;65.50;;;;;;21247017;28;20265;-72
2023/05/02 12:12:02;;;;;;;11.87;8.20;;;18.40;64.70;;;;;;21246564;28;20228;-71
2023/05/02 12:22:05;;;;;;;11.67;7.43;;;18.40;65.30;;;;;;21244748;28;20569;-71
2023/05/02 12:32:07;;;;;;;8.90;6.93;;;18.60;65.50;;;;;;21245967;28;20233;-71
2023/05/02 12:42:10;;;;;;;7.53;6.30;;;;;;;;;;21245137;28;20244;-71
2023/05/02 12:52:12;;;;;;;5.67;5.07;;;;;;;;;;21244716;28;20722;-70
2023/05/02 13:02:14;;;;;;;6.63;4.60;;;19.10;63.50;;;;;;21238908;27;20205;-71
2023/05/02 13:12:16;;;;;;;7.33;4.43;;;19.30;59.60;;;;;;21260548;27;20285;-70
2023/05/02 13:22:19;;;;;;;5.37;4.47;;;;;;;;;;21258593;27;20581;-70
2023/05/02 13:32:21;;;;;;;4.97;3.47;;;;;;;;;;21257406;27;20233;-71
2023/05/02 13:42:23;;;;;;;6.77;2.60;;;;;;;;;;21257490;27;20201;-70
2023/05/02 13:52:25;;;;;;;4.57;2.57;;;;;;;;;;21255986;27;20336;-70
2023/05/02 14:02:27;;;;;;;3.53;3.07;;;;;;;;;;21237179;27;20204;-70
2023/05/02 14:12:30;;;;;;;2.40;2.00;;;;;;;;;;21254792;27;20610;-70
2023/05/02 14:22:32;;;;;;;3.33;2.37;;;19.60;59.90;;;;;;21253481;27;20226;-71
2023/05/02 14:32:34;;;;;;;9.07;2.73;;;20.90;51.80;;;;;;21255127;27;20653;-69
2023/05/02 14:42:36;;;;;;;2.73;2.37;;;20.00;54.10;;;;;;21258620;27;20212;-70
2023/05/02 14:52:37;;;;;;;2.90;2.33;;;19.80;55.30;;;;;;21262242;27;20237;-70
2023/05/02 15:02:40;;;;;;;2.40;2.03;;;19.60;56.20;;;;;;21251067;27;20210;-70
2023/05/02 15:12:42;;;;;;;2.63;2.20;;;18.90;57.40;;;;;;21230032;27;20260;-71
2023/05/02 15:22:43;;;;;;;3.07;2.40;;;19.10;56.50;;;;;;21220494;27;20202;-72
2023/05/02 15:32:45;;;;;;;2.27;2.07;;;19.90;56.00;;;;;;21204768;27;20687;-72
2023/05/02 15:42:47;;;;;;;2.83;2.47;;;21.30;54.90;;;;;;21196320;27;20207;-72
2023/05/02 15:52:49;;;;;;;1.95;1.60;;;24.50;47.40;;;;;;21161226;28;20250;-72
2023/05/02 16:02:51;;;;;;;2.50;2.28;;;24.40;46.90;;;;;;21143690;28;20205;-73
2023/05/02 16:12:53;;;;;;;2.10;1.90;;;27.10;40.20;;;;;;21216045;28;20281;-74
2023/05/02 16:22:55;;;;;;;1.58;1.48;;;26.40;41.20;;;;;;21246699;28;20209;-71
2023/05/02 16:32:56;;;;;;;2.30;2.10;;;24.50;41.50;;;;;;21252511;27;20285;-72
2023/05/02 16:42:58;;;;;;;2.63;1.60;;;;;;;;;;21243842;27;20214;-72
2023/05/02 16:53:00;;;;;;;4.80;1.27;;;23.60;42.80;;;;;;21260888;27;20248;-71
2023/05/02 17:03:02;;;;;;;1.30;1.10;;;23.80;46.30;;;;;;21260506;27;20613;-72
2023/05/02 17:13:06;;;;;;;1.17;0.90;;;23.80;46.90;;;;;;21260126;27;20232;-70
2023/05/02 17:23:08;;;;;;;3.37;1.13;;;;;;;;;;21259005;27;20289;-72
2023/05/02 17:33:10;;;;;;;1.17;1.07;;;;;;;;;;21258331;27;20229;-72
2023/05/02 17:43:13;;;;;;;1.30;1.20;;;;;;;;;;21257201;27;20664;-72
2023/05/02 17:53:15;;;;;;;1.40;1.30;;;;;;;;;;21256834;27;20246;-72
2023/05/02 18:03:17;;;;;;;1.63;1.43;;;;;;;;;;21246675;27;20202;-71
2023/05/02 18:13:19;;;;;;;2.87;1.70;;;17.30;57.40;;;;;;21210600;27;20315;-71
2023/05/02 18:23:20;;;;;;;2.33;1.77;;;17.20;58.00;;;;;;21211818;27;20264;-73
2023/05/02 18:33:22;;;;;;;1.80;1.70;;;16.60;59.40;;;;;;21202959;27;20238;-69
2023/05/02 18:43:23;;;;;;;4.37;2.40;;;16.20;60.30;;;;;;21203779;27;20430;-67
2023/05/02 18:53:25;;;;;;;3.37;2.57;;;16.40;62.50;;;;;;21166566;28;20242;-69
2023/05/02 19:03:27;;;;;;;4.03;2.37;;;15.60;62.30;;;;;;21166313;28;20657;-71
2023/05/02 19:13:29;;;;;;;4.90;2.83;;;15.50;63.10;;;;;;21165478;28;20292;-71
2023/05/02 19:23:31;;;;;;;6.20;2.67;;;15.40;63.90;;;;;;21165091;28;20653;-68
2023/05/02 19:33:33;;;;;;;3.73;2.70;;;15.20;64.70;;;;;;21163992;28;20233;-69
2023/05/02 19:43:35;;;;;;;3.00;2.70;;;14.90;65.70;;;;;;21163697;28;20547;-72
2023/05/02 19:53:37;;;;;;;5.73;3.10;;;14.70;66.40;;;;;;21163245;28;20240;-71
2023/05/02 20:03:38;;;;;;;5.87;3.50;;;14.60;67.30;;;;;;21144610;28;20220;-72
2023/05/02 20:13:40;;;;;;;7.00;4.33;;;14.20;67.80;;;;;;21178877;28;20465;-71
2023/05/02 20:23:43;;;;;;;14.77;4.20;;;14.20;68.50;;;;;;21160920;28;20211;-71
2023/05/02 20:33:45;;;;;;;11.67;4.87;;;14.00;69.10;;;;;;21178026;28;20233;-71
2023/05/02 20:43:47;;;;;;;7.43;4.53;;;13.80;69.40;;;;;;21183504;27;20245;-63
2023/05/02 20:53:48;;;;;;;9.53;4.87;;;13.60;69.10;;;;;;21220382;27;20237;-69
2023/05/02 21:03:50;;;;;;;10.07;5.10;;;13.40;69.90;;;;;;21203725;27;20525;-69
2023/05/02 21:13:52;;;;;;;8.20;4.70;;;13.30;70.50;;;;;;21174835;28;20234;-66
2023/05/02 21:23:53;;;;;;;13.47;4.90;;;13.10;70.50;;;;;;21237757;27;20283;-65
2023/05/02 21:33:55;;;;;;;9.53;4.93;;;13.00;70.70;;;;;;21258039;27;20295;-67
2023/05/02 21:43:57;;;;;;;8.17;4.80;;;13.00;71.20;;;;;;21245864;27;20630;-68
2023/05/02 21:53:58;;;;;;;9.17;5.30;;;12.90;71.70;;;;;;21199537;27;20233;-71
2023/05/02 22:04:00;;;;;;;9.20;5.00;;;12.80;72.00;;;;;;21250911;27;20210;-71
2023/05/02 22:14:02;;;;;;;8.57;5.17;;;12.80;72.40;;;;;;21216792;27;20277;-70
2023/05/02 22:24:04;;;;;;;8.47;4.93;;;12.40;72.60;;;;;;21204672;27;20201;-70
2023/05/02 22:34:05;;;;;;;11.50;5.67;;;12.40;73.20;;;;;;21183127;27;20723;-67
2023/05/02 22:44:08;;;;;;;12.77;5.57;;;12.30;73.90;;;;;;21214161;27;20671;-68
2023/05/02 22:54:09;;;;;;;14.10;5.43;;;11.90;75.80;;;;;;21210373;27;20595;-71
2023/05/02 23:04:11;;;;;;;10.53;5.40;;;11.80;76.30;;;;;;21204319;27;20268;-67
2023/05/02 23:14:13;;;;;;;15.87;5.93;;;11.80;77.10;;;;;;21209124;27;20237;-68
2023/05/02 23:24:15;;;;;;;10.67;5.60;;;11.70;77.50;;;;;;21208283;27;20240;-67
2023/05/02 23:34:17;;;;;;;12.83;5.90;;;11.60;78.00;;;;;;21202459;27;20246;-70
2023/05/02 23:44:19;;;;;;;11.57;5.83;;;11.40;78.60;;;;;;21206931;27;20194;-70
2023/05/02 23:54:20;;;;;;;10.30;5.67;;;11.30;79.50;;;;;;21206488;27;20245;-70
